sensor_id;sensor_type;location;lat;lon;timestamp;temperature;humidity
19928;DHT22;10126;50.876;4.470;2022-10-31T00:00:24;15.70;99.90
19928;DHT22;10126;50.876;4.470;2022-10-31T00:02:25;15.70;99.90
19928;DHT22;10126;50.876;4.470;2022-10-31T00:04:25;15.60;99.90
19928;DHT22;10126;50.876;4.470;2022-10-31T00:06:26;15.60;99.90
19928;DHT22;10126;50.876;4.470;2022-10-31T00:08:27;15.60;99.90
19928;DHT22;10126;50.876;4.470;2022-10-31T00:10:28;15.40;99.90
19928;DHT22;10126;50.876;4.470;2022-10-31T00:12:28;15.40;99.90
19928;DHT22;10126;50.876;4.470;2022-10-31T00:14:29;15.50;99.90
19928;DHT22;10126;50.876;4.470;2022-10-31T00:16:29;15.40;99.90
19928;DHT22;10126;50.876;4.470;2022-10-31T00:18:31;15.30;99.90
19928;DHT22;10126;50.876;4.470;2022-10-31T00:20:32;15.30;99.90
19928;DHT22;10126;50.876;4.470;2022-10-31T00:22:32;15.30;99.90
19928;DHT22;10126;50.876;4.470;2022-10-31T00:24:33;15.20;99.90
19928;DHT22;10126;50.876;4.470;2022-10-31T00:26:33;15.10;99.90
19928;DHT22;10126;50.876;4.470;2022-10-31T00:28:34;15.10;99.90
19928;DHT22;10126;50.876;4.470;2022-10-31T00:30:35;15.10;99.90
19928;DHT22;10126;50.876;4.470;2022-10-31T00:32:35;15.00;99.90
19928;DHT22;10126;50.876;4.470;2022-10-31T00:34:36;14.90;99.90
19928;DHT22;10126;50.876;4.470;2022-10-31T00:36:37;15.00;99.90
19928;DHT22;10126;50.876;4.470;2022-10-31T00:38:37;15.00;99.90
19928;DHT22;10126;50.876;4.470;2022-10-31T00:40:38;14.90;99.90
19928;DHT22;10126;50.876;4.470;2022-10-31T00:42:40;14.90;99.90
19928;DHT22;10126;50.876;4.470;2022-10-31T00:44:41;14.90;99.90
19928;DHT22;10126;50.876;4.470;2022-10-31T00:46:42;14.90;99.90
19928;DHT22;10126;50.876;4.470;2022-10-31T00:48:43;14.90;99.90
19928;DHT22;10126;50.876;4.470;2022-10-31T00:50:43;14.90;99.90
19928;DHT22;10126;50.876;4.470;2022-10-31T00:52:44;14.70;99.90
19928;DHT22;10126;50.876;4.470;2022-10-31T00:54:44;14.60;99.90
19928;DHT22;10126;50.876;4.470;2022-10-31T00:56:45;14.60;99.90
19928;DHT22;10126;50.876;4.470;2022-10-31T00:58:46;14.50;99.90
19928;DHT22;10126;50.876;4.470;2022-10-31T01:00:48;14.50;99.90
19928;DHT22;10126;50.876;4.470;2022-10-31T01:02:55;14.30;99.90
19928;DHT22;10126;50.876;4.470;2022-10-31T01:04:55;14.20;99.90
19928;DHT22;10126;50.876;4.470;2022-10-31T01:06:56;14.20;99.90
19928;DHT22;10126;50.876;4.470;2022-10-31T01:08:57;14.10;99.90
19928;DHT22;10126;50.876;4.470;2022-10-31T01:11:08;14.20;99.90
19928;DHT22;10126;50.876;4.470;2022-10-31T01:13:10;14.10;99.90
19928;DHT22;10126;50.876;4.470;2022-10-31T01:15:12;14.10;99.90
19928;DHT22;10126;50.876;4.470;2022-10-31T01:17:14;14.00;99.90
19928;DHT22;10126;50.876;4.470;2022-10-31T01:19:14;14.00;99.90
19928;DHT22;10126;50.876;4.470;2022-10-31T01:21:18;14.00;99.90
19928;DHT22;10126;50.876;4.470;2022-10-31T01:23:18;14.10;99.90
19928;DHT22;10126;50.876;4.470;2022-10-31T01:25:19;14.00;99.90
19928;DHT22;10126;50.876;4.470;2022-10-31T01:27:20;13.90;99.90
19928;DHT22;10126;50.876;4.470;2022-10-31T01:29:20;13.90;99.90
19928;DHT22;10126;50.876;4.470;2022-10-31T01:31:23;13.80;99.90
19928;DHT22;10126;50.876;4.470;2022-10-31T01:33:24;13.70;99.90
19928;DHT22;10126;50.876;4.470;2022-10-31T01:35:25;13.90;99.90
19928;DHT22;10126;50.876;4.470;2022-10-31T01:37:25;14.00;99.90
19928;DHT22;10126;50.876;4.470;2022-10-31T01:39:26;14.00;99.90
19928;DHT22;10126;50.876;4.470;2022-10-31T01:41:30;14.00;99.90
19928;DHT22;10126;50.876;4.470;2022-10-31T01:45:53;13.90;99.90
19928;DHT22;10126;50.876;4.470;2022-10-31T01:47:55;13.80;99.90
19928;DHT22;10126;50.876;4.470;2022-10-31T01:49:58;13.80;99.90
19928;DHT22;10126;50.876;4.470;2022-10-31T01:52:03;13.90;99.90
19928;DHT22;10126;50.876;4.470;2022-10-31T01:54:08;13.90;99.90
19928;DHT22;10126;50.876;4.470;2022-10-31T01:56:09;13.90;99.90
19928;DHT22;10126;50.876;4.470;2022-10-31T01:58:16;13.80;99.90
19928;DHT22;10126;50.876;4.470;2022-10-31T02:00:20;13.70;99.90
19928;DHT22;10126;50.876;4.470;2022-10-31T02:02:24;13.70;99.90
19928;DHT22;10126;50.876;4.470;2022-10-31T02:04:26;13.70;99.90
19928;DHT22;10126;50.876;4.470;2022-10-31T02:08:39;13.50;99.90
19928;DHT22;10126;50.876;4.470;2022-10-31T02:10:40;13.50;99.90
19928;DHT22;10126;50.876;4.470;2022-10-31T02:12:42;13.50;99.90
19928;DHT22;10126;50.876;4.470;2022-10-31T02:14:44;13.50;99.90
19928;DHT22;10126;50.876;4.470;2022-10-31T02:16:45;13.40;99.90
19928;DHT22;10126;50.876;4.470;2022-10-31T02:18:45;13.40;99.90
19928;DHT22;10126;50.876;4.470;2022-10-31T02:31:17;13.40;99.90
19928;DHT22;10126;50.876;4.470;2022-10-31T02:33:58;13.30;99.90
19928;DHT22;10126;50.876;4.470;2022-10-31T02:40:23;13.30;99.90
19928;DHT22;10126;50.876;4.470;2022-10-31T02:42:57;13.30;99.90
19928;DHT22;10126;50.876;4.470;2022-10-31T02:47:12;13.20;99.90
19928;DHT22;10126;50.876;4.470;2022-10-31T02:49:33;13.20;99.90
19928;DHT22;10126;50.876;4.470;2022-10-31T02:51:37;13.20;99.90
19928;DHT22;10126;50.876;4.470;2022-10-31T02:53:38;13.10;99.90
19928;DHT22;10126;50.876;4.470;2022-10-31T02:57:40;12.90;99.90
19928;DHT22;10126;50.876;4.470;2022-10-31T02:59:47;13.00;99.90
19928;DHT22;10126;50.876;4.470;2022-10-31T03:10:58;12.90;99.90
19928;DHT22;10126;50.876;4.470;2022-10-31T03:13:10;12.90;99.90
19928;DHT22;10126;50.876;4.470;2022-10-31T03:15:23;12.90;99.90
19928;DHT22;10126;50.876;4.470;2022-10-31T03:17:36;12.90;99.90
19928;DHT22;10126;50.876;4.470;2022-10-31T03:19:43;13.00;99.90
19928;DHT22;10126;50.876;4.470;2022-10-31T03:21:59;13.10;99.90
19928;DHT22;10126;50.876;4.470;2022-10-31T03:24:01;13.10;99.90
19928;DHT22;10126;50.876;4.470;2022-10-31T03:26:05;13.20;99.90
19928;DHT22;10126;50.876;4.470;2022-10-31T03:28:07;13.20;99.90
19928;DHT22;10126;50.876;4.470;2022-10-31T03:30:10;13.10;99.90
19928;DHT22;10126;50.876;4.470;2022-10-31T03:32:28;13.10;99.90
19928;DHT22;10126;50.876;4.470;2022-10-31T03:34:30;13.00;99.90
19928;DHT22;10126;50.876;4.470;2022-10-31T03:36:34;13.10;99.90
19928;DHT22;10126;50.876;4.470;2022-10-31T03:38:37;13.20;99.90
19928;DHT22;10126;50.876;4.470;2022-10-31T03:40:40;13.10;99.90
19928;DHT22;10126;50.876;4.470;2022-10-31T03:42:48;13.10;99.90
19928;DHT22;10126;50.876;4.470;2022-10-31T03:45:15;13.10;99.90
19928;DHT22;10126;50.876;4.470;2022-10-31T03:47:18;13.10;99.90
19928;DHT22;10126;50.876;4.470;2022-10-31T03:49:19;13.10;99.90
19928;DHT22;10126;50.876;4.470;2022-10-31T03:51:23;13.00;99.90
19928;DHT22;10126;50.876;4.470;2022-10-31T03:53:33;13.00;99.90
19928;DHT22;10126;50.876;4.470;2022-10-31T03:55:41;13.10;99.90
19928;DHT22;10126;50.876;4.470;2022-10-31T03:57:56;13.20;99.90
19928;DHT22;10126;50.876;4.470;2022-10-31T04:00:03;13.10;99.90
19928;DHT22;10126;50.876;4.470;2022-10-31T04:02:07;13.00;99.90
19928;DHT22;10126;50.876;4.470;2022-10-31T04:04:10;13.00;99.90
19928;DHT22;10126;50.876;4.470;2022-10-31T04:06:13;12.90;99.90
19928;DHT22;10126;50.876;4.470;2022-10-31T04:08:17;13.00;99.90
19928;DHT22;10126;50.876;4.470;2022-10-31T04:10:21;13.00;99.90
19928;DHT22;10126;50.876;4.470;2022-10-31T04:12:24;13.00;99.90
19928;DHT22;10126;50.876;4.470;2022-10-31T04:14:27;13.00;99.90
19928;DHT22;10126;50.876;4.470;2022-10-31T04:16:30;12.90;99.90
19928;DHT22;10126;50.876;4.470;2022-10-31T04:18:30;13.00;99.90
19928;DHT22;10126;50.876;4.470;2022-10-31T04:20:39;13.00;99.90
19928;DHT22;10126;50.876;4.470;2022-10-31T04:22:40;12.90;99.90
19928;DHT22;10126;50.876;4.470;2022-10-31T04:24:41;12.90;99.90
19928;DHT22;10126;50.876;4.470;2022-10-31T04:26:41;12.80;99.90
19928;DHT22;10126;50.876;4.470;2022-10-31T04:28:42;12.70;99.90
19928;DHT22;10126;50.876;4.470;2022-10-31T04:30:42;12.70;99.90
19928;DHT22;10126;50.876;4.470;2022-10-31T04:32:43;12.70;99.90
19928;DHT22;10126;50.876;4.470;2022-10-31T04:34:44;12.70;99.90
19928;DHT22;10126;50.876;4.470;2022-10-31T04:36:45;12.70;99.90
19928;DHT22;10126;50.876;4.470;2022-10-31T04:38:46;12.60;99.90
19928;DHT22;10126;50.876;4.470;2022-10-31T04:40:46;12.70;99.90
19928;DHT22;10126;50.876;4.470;2022-10-31T04:42:47;12.70;99.90
19928;DHT22;10126;50.876;4.470;2022-10-31T04:44:47;12.70;99.90
19928;DHT22;10126;50.876;4.470;2022-10-31T04:46:48;12.70;99.90
19928;DHT22;10126;50.876;4.470;2022-10-31T04:48:49;12.70;99.90
19928;DHT22;10126;50.876;4.470;2022-10-31T04:50:49;12.80;99.90
19928;DHT22;10126;50.876;4.470;2022-10-31T04:52:52;12.80;99.90
19928;DHT22;10126;50.876;4.470;2022-10-31T04:54:52;12.90;99.90
19928;DHT22;10126;50.876;4.470;2022-10-31T04:56:53;12.90;99.90
19928;DHT22;10126;50.876;4.470;2022-10-31T04:58:54;12.90;99.90
19928;DHT22;10126;50.876;4.470;2022-10-31T05:00:55;12.90;99.90
19928;DHT22;10126;50.876;4.470;2022-10-31T05:02:57;13.10;99.90
19928;DHT22;10126;50.876;4.470;2022-10-31T05:04:58;13.10;99.90
19928;DHT22;10126;50.876;4.470;2022-10-31T05:06:58;13.00;99.90
19928;DHT22;10126;50.876;4.470;2022-10-31T05:08:59;13.10;99.90
19928;DHT22;10126;50.876;4.470;2022-10-31T05:11:01;13.10;99.90
19928;DHT22;10126;50.876;4.470;2022-10-31T05:13:03;13.20;99.90
19928;DHT22;10126;50.876;4.470;2022-10-31T05:15:05;13.20;99.90
19928;DHT22;10126;50.876;4.470;2022-10-31T05:17:06;13.10;99.90
19928;DHT22;10126;50.876;4.470;2022-10-31T05:19:06;13.10;99.90
19928;DHT22;10126;50.876;4.470;2022-10-31T05:21:07;13.10;99.90
19928;DHT22;10126;50.876;4.470;2022-10-31T05:23:08;13.20;99.90
19928;DHT22;10126;50.876;4.470;2022-10-31T05:25:08;13.30;99.90
19928;DHT22;10126;50.876;4.470;2022-10-31T05:27:09;13.40;99.90
19928;DHT22;10126;50.876;4.470;2022-10-31T05:29:10;13.40;99.90
19928;DHT22;10126;50.876;4.470;2022-10-31T05:31:10;13.40;99.90
19928;DHT22;10126;50.876;4.470;2022-10-31T05:33:11;13.40;99.90
19928;DHT22;10126;50.876;4.470;2022-10-31T05:35:14;13.40;99.90
19928;DHT22;10126;50.876;4.470;2022-10-31T05:37:15;13.40;99.90
19928;DHT22;10126;50.876;4.470;2022-10-31T05:39:15;13.30;99.90
19928;DHT22;10126;50.876;4.470;2022-10-31T05:41:16;13.40;99.90
19928;DHT22;10126;50.876;4.470;2022-10-31T05:43:16;13.40;99.90
19928;DHT22;10126;50.876;4.470;2022-10-31T05:45:17;13.40;99.90
19928;DHT22;10126;50.876;4.470;2022-10-31T05:47:18;13.30;99.90
19928;DHT22;10126;50.876;4.470;2022-10-31T05:49:19;13.30;99.90
19928;DHT22;10126;50.876;4.470;2022-10-31T05:51:19;13.40;99.90
19928;DHT22;10126;50.876;4.470;2022-10-31T05:53:20;13.40;99.90
19928;DHT22;10126;50.876;4.470;2022-10-31T05:55:21;13.50;99.90
19928;DHT22;10126;50.876;4.470;2022-10-31T05:57:21;13.40;99.90
19928;DHT22;10126;50.876;4.470;2022-10-31T05:59:22;13.40;99.90
19928;DHT22;10126;50.876;4.470;2022-10-31T06:01:22;13.40;99.90
19928;DHT22;10126;50.876;4.470;2022-10-31T06:03:23;13.50;99.90
19928;DHT22;10126;50.876;4.470;2022-10-31T06:05:24;13.40;99.90
19928;DHT22;10126;50.876;4.470;2022-10-31T06:07:24;13.40;99.90
19928;DHT22;10126;50.876;4.470;2022-10-31T06:09:25;13.40;99.90
19928;DHT22;10126;50.876;4.470;2022-10-31T06:11:25;13.40;99.90
19928;DHT22;10126;50.876;4.470;2022-10-31T06:13:26;13.50;99.90
19928;DHT22;10126;50.876;4.470;2022-10-31T06:15:27;13.70;99.90
19928;DHT22;10126;50.876;4.470;2022-10-31T06:17:27;13.70;99.90
19928;DHT22;10126;50.876;4.470;2022-10-31T06:19:28;13.70;99.90
19928;DHT22;10126;50.876;4.470;2022-10-31T06:21:28;13.70;99.90
19928;DHT22;10126;50.876;4.470;2022-10-31T06:23:29;13.90;99.90
19928;DHT22;10126;50.876;4.470;2022-10-31T06:25:30;14.20;99.90
19928;DHT22;10126;50.876;4.470;2022-10-31T06:27:31;14.50;99.90
19928;DHT22;10126;50.876;4.470;2022-10-31T06:29:32;14.40;99.90
19928;DHT22;10126;50.876;4.470;2022-10-31T06:31:32;14.30;99.90
19928;DHT22;10126;50.876;4.470;2022-10-31T06:33:34;14.10;99.90
19928;DHT22;10126;50.876;4.470;2022-10-31T06:35:34;14.00;99.90
19928;DHT22;10126;50.876;4.470;2022-10-31T06:37:35;13.90;99.90
19928;DHT22;10126;50.876;4.470;2022-10-31T06:39:36;13.90;99.90
19928;DHT22;10126;50.876;4.470;2022-10-31T06:41:36;13.80;99.90
19928;DHT22;10126;50.876;4.470;2022-10-31T06:43:37;13.80;99.90
19928;DHT22;10126;50.876;4.470;2022-10-31T06:45:38;13.80;99.90
19928;DHT22;10126;50.876;4.470;2022-10-31T06:47:38;13.70;99.90
19928;DHT22;10126;50.876;4.470;2022-10-31T06:49:39;13.70;99.90
19928;DHT22;10126;50.876;4.470;2022-10-31T06:51:40;13.80;99.90
19928;DHT22;10126;50.876;4.470;2022-10-31T06:53:40;13.80;99.90
19928;DHT22;10126;50.876;4.470;2022-10-31T06:55:41;13.80;99.90
19928;DHT22;10126;50.876;4.470;2022-10-31T06:57:42;13.80;99.90
19928;DHT22;10126;50.876;4.470;2022-10-31T06:59:49;13.80;99.90
19928;DHT22;10126;50.876;4.470;2022-10-31T07:01:50;13.80;99.90
19928;DHT22;10126;50.876;4.470;2022-10-31T07:03:50;13.80;99.90
19928;DHT22;10126;50.876;4.470;2022-10-31T07:05:51;13.70;99.90
19928;DHT22;10126;50.876;4.470;2022-10-31T07:07:56;13.80;99.90
19928;DHT22;10126;50.876;4.470;2022-10-31T07:09:57;13.90;99.90
19928;DHT22;10126;50.876;4.470;2022-10-31T07:11:57;14.00;99.90
19928;DHT22;10126;50.876;4.470;2022-10-31T07:13:58;13.90;99.90
19928;DHT22;10126;50.876;4.470;2022-10-31T07:16:01;13.80;99.90
19928;DHT22;10126;50.876;4.470;2022-10-31T07:18:04;13.90;99.90
19928;DHT22;10126;50.876;4.470;2022-10-31T07:20:05;13.90;99.90
19928;DHT22;10126;50.876;4.470;2022-10-31T07:22:06;14.10;99.90
19928;DHT22;10126;50.876;4.470;2022-10-31T07:24:07;14.10;99.90
19928;DHT22;10126;50.876;4.470;2022-10-31T07:26:08;14.40;99.90
19928;DHT22;10126;50.876;4.470;2022-10-31T07:28:10;14.60;99.90
19928;DHT22;10126;50.876;4.470;2022-10-31T07:30:12;14.80;99.90
19928;DHT22;10126;50.876;4.470;2022-10-31T07:32:13;14.80;99.90
19928;DHT22;10126;50.876;4.470;2022-10-31T07:34:13;14.80;99.90
19928;DHT22;10126;50.876;4.470;2022-10-31T07:36:14;14.80;99.90
19928;DHT22;10126;50.876;4.470;2022-10-31T07:38:15;14.80;99.90
19928;DHT22;10126;50.876;4.470;2022-10-31T07:40:16;14.80;99.90
19928;DHT22;10126;50.876;4.470;2022-10-31T07:42:17;14.70;99.90
19928;DHT22;10126;50.876;4.470;2022-10-31T07:44:18;14.90;99.90
19928;DHT22;10126;50.876;4.470;2022-10-31T07:46:19;14.80;99.90
19928;DHT22;10126;50.876;4.470;2022-10-31T07:48:20;14.90;99.90
19928;DHT22;10126;50.876;4.470;2022-10-31T07:50:29;14.90;99.90
19928;DHT22;10126;50.876;4.470;2022-10-31T07:52:30;15.00;99.90
19928;DHT22;10126;50.876;4.470;2022-10-31T07:54:31;15.20;99.90
19928;DHT22;10126;50.876;4.470;2022-10-31T07:56:31;15.30;99.90
19928;DHT22;10126;50.876;4.470;2022-10-31T07:58:32;15.40;99.90
19928;DHT22;10126;50.876;4.470;2022-10-31T08:00:33;15.40;99.90
19928;DHT22;10126;50.876;4.470;2022-10-31T08:02:35;15.40;99.90
19928;DHT22;10126;50.876;4.470;2022-10-31T08:04:36;15.40;99.90
19928;DHT22;10126;50.876;4.470;2022-10-31T08:06:36;15.10;99.90
19928;DHT22;10126;50.876;4.470;2022-10-31T08:08:37;15.00;99.90
19928;DHT22;10126;50.876;4.470;2022-10-31T08:10:38;14.90;99.90
19928;DHT22;10126;50.876;4.470;2022-10-31T08:12:39;15.00;99.90
19928;DHT22;10126;50.876;4.470;2022-10-31T08:14:39;15.10;99.90
19928;DHT22;10126;50.876;4.470;2022-10-31T08:16:40;14.80;99.90
19928;DHT22;10126;50.876;4.470;2022-10-31T08:18:40;15.00;99.90
19928;DHT22;10126;50.876;4.470;2022-10-31T08:20:42;15.10;99.90
19928;DHT22;10126;50.876;4.470;2022-10-31T08:22:43;15.20;99.90
19928;DHT22;10126;50.876;4.470;2022-10-31T08:24:43;15.40;99.90
19928;DHT22;10126;50.876;4.470;2022-10-31T08:26:44;15.60;99.90
19928;DHT22;10126;50.876;4.470;2022-10-31T08:28:45;15.80;99.90
19928;DHT22;10126;50.876;4.470;2022-10-31T08:30:46;15.90;99.90
19928;DHT22;10126;50.876;4.470;2022-10-31T08:32:47;16.10;99.90
19928;DHT22;10126;50.876;4.470;2022-10-31T08:34:56;16.20;99.90
19928;DHT22;10126;50.876;4.470;2022-10-31T08:36:57;16.30;99.90
19928;DHT22;10126;50.876;4.470;2022-10-31T08:38:58;16.40;99.90
19928;DHT22;10126;50.876;4.470;2022-10-31T08:40:59;16.20;99.90
19928;DHT22;10126;50.876;4.470;2022-10-31T08:43:02;16.00;99.90
19928;DHT22;10126;50.876;4.470;2022-10-31T08:45:03;15.90;99.90
19928;DHT22;10126;50.876;4.470;2022-10-31T08:47:04;15.70;99.90
19928;DHT22;10126;50.876;4.470;2022-10-31T08:49:05;15.80;99.90
19928;DHT22;10126;50.876;4.470;2022-10-31T08:51:05;15.60;99.90
19928;DHT22;10126;50.876;4.470;2022-10-31T08:53:20;15.20;99.90
19928;DHT22;10126;50.876;4.470;2022-10-31T08:55:20;15.00;99.90
19928;DHT22;10126;50.876;4.470;2022-10-31T08:57:21;15.20;99.90
19928;DHT22;10126;50.876;4.470;2022-10-31T08:59:22;15.60;99.90
19928;DHT22;10126;50.876;4.470;2022-10-31T09:01:22;15.70;99.90
19928;DHT22;10126;50.876;4.470;2022-10-31T09:03:25;15.90;99.90
19928;DHT22;10126;50.876;4.470;2022-10-31T09:05:26;16.10;99.90
19928;DHT22;10126;50.876;4.470;2022-10-31T09:07:27;16.10;99.90
19928;DHT22;10126;50.876;4.470;2022-10-31T09:09:27;16.30;99.90
19928;DHT22;10126;50.876;4.470;2022-10-31T09:11:30;16.30;99.90
19928;DHT22;10126;50.876;4.470;2022-10-31T09:13:31;16.50;99.90
19928;DHT22;10126;50.876;4.470;2022-10-31T09:15:32;16.60;99.90
19928;DHT22;10126;50.876;4.470;2022-10-31T09:17:33;16.80;99.90
19928;DHT22;10126;50.876;4.470;2022-10-31T09:19:34;16.80;99.90
19928;DHT22;10126;50.876;4.470;2022-10-31T09:21:36;16.90;99.90
19928;DHT22;10126;50.876;4.470;2022-10-31T09:23:36;17.10;99.90
19928;DHT22;10126;50.876;4.470;2022-10-31T09:25:37;17.10;99.90
19928;DHT22;10126;50.876;4.470;2022-10-31T09:27:38;17.20;99.90
19928;DHT22;10126;50.876;4.470;2022-10-31T09:29:39;17.20;99.90
19928;DHT22;10126;50.876;4.470;2022-10-31T09:31:40;17.20;99.90
19928;DHT22;10126;50.876;4.470;2022-10-31T09:33:40;17.30;99.90
19928;DHT22;10126;50.876;4.470;2022-10-31T09:35:42;17.30;99.90
19928;DHT22;10126;50.876;4.470;2022-10-31T09:37:43;17.20;99.90
19928;DHT22;10126;50.876;4.470;2022-10-31T09:39:43;17.10;99.90
19928;DHT22;10126;50.876;4.470;2022-10-31T09:51:33;16.40;99.90
19928;DHT22;10126;50.876;4.470;2022-10-31T09:53:49;16.60;99.90
19928;DHT22;10126;50.876;4.470;2022-10-31T09:55:51;16.70;99.90
19928;DHT22;10126;50.876;4.470;2022-10-31T09:57:53;16.70;99.90
19928;DHT22;10126;50.876;4.470;2022-10-31T09:59:54;17.00;99.90
19928;DHT22;10126;50.876;4.470;2022-10-31T10:04:12;17.00;99.90
19928;DHT22;10126;50.876;4.470;2022-10-31T10:06:25;17.00;99.90
19928;DHT22;10126;50.876;4.470;2022-10-31T10:08:31;17.20;99.90
19928;DHT22;10126;50.876;4.470;2022-10-31T10:20:53;17.40;99.90
19928;DHT22;10126;50.876;4.470;2022-10-31T10:25:38;17.60;99.90
19928;DHT22;10126;50.876;4.470;2022-10-31T10:27:53;17.60;99.90
19928;DHT22;10126;50.876;4.470;2022-10-31T10:30:04;17.90;99.90
19928;DHT22;10126;50.876;4.470;2022-10-31T10:32:22;17.90;99.90
19928;DHT22;10126;50.876;4.470;2022-10-31T10:34:29;18.20;99.90
19928;DHT22;10126;50.876;4.470;2022-10-31T10:36:44;18.30;99.90
19928;DHT22;10126;50.876;4.470;2022-10-31T10:38:52;18.20;99.90
19928;DHT22;10126;50.876;4.470;2022-10-31T10:40:54;18.00;99.90
19928;DHT22;10126;50.876;4.470;2022-10-31T10:45:23;17.60;99.90
19928;DHT22;10126;50.876;4.470;2022-10-31T10:47:44;17.80;99.90
19928;DHT22;10126;50.876;4.470;2022-10-31T10:49:51;18.00;99.90
19928;DHT22;10126;50.876;4.470;2022-10-31T10:52:07;18.30;99.90
19928;DHT22;10126;50.876;4.470;2022-10-31T10:58:54;18.50;99.90
19928;DHT22;10126;50.876;4.470;2022-10-31T11:00:56;18.30;99.90
19928;DHT22;10126;50.876;4.470;2022-10-31T11:02:57;18.20;99.90
19928;DHT22;10126;50.876;4.470;2022-10-31T11:05:00;18.30;99.90
19928;DHT22;10126;50.876;4.470;2022-10-31T11:07:09;18.70;99.90
19928;DHT22;10126;50.876;4.470;2022-10-31T11:09:10;19.10;99.90
19928;DHT22;10126;50.876;4.470;2022-10-31T11:11:24;19.20;99.90
19928;DHT22;10126;50.876;4.470;2022-10-31T11:13:30;19.10;99.90
19928;DHT22;10126;50.876;4.470;2022-10-31T11:17:52;19.10;99.90
19928;DHT22;10126;50.876;4.470;2022-10-31T11:20:28;19.10;99.90
19928;DHT22;10126;50.876;4.470;2022-10-31T11:22:31;19.10;99.90
19928;DHT22;10126;50.876;4.470;2022-10-31T11:24:37;18.90;99.90
19928;DHT22;10126;50.876;4.470;2022-10-31T11:26:40;18.90;99.90
19928;DHT22;10126;50.876;4.470;2022-10-31T11:28:41;18.70;99.90
19928;DHT22;10126;50.876;4.470;2022-10-31T11:30:46;18.90;99.90
19928;DHT22;10126;50.876;4.470;2022-10-31T11:32:49;19.00;99.90
19928;DHT22;10126;50.876;4.470;2022-10-31T11:34:59;19.10;99.90
19928;DHT22;10126;50.876;4.470;2022-10-31T11:37:13;18.90;99.90
19928;DHT22;10126;50.876;4.470;2022-10-31T11:39:23;18.80;99.90
19928;DHT22;10126;50.876;4.470;2022-10-31T11:41:30;19.00;99.90
19928;DHT22;10126;50.876;4.470;2022-10-31T11:43:32;19.00;99.90
19928;DHT22;10126;50.876;4.470;2022-10-31T11:45:33;18.90;99.90
19928;DHT22;10126;50.876;4.470;2022-10-31T11:47:34;18.90;99.90
19928;DHT22;10126;50.876;4.470;2022-10-31T11:49:45;18.70;99.90
19928;DHT22;10126;50.876;4.470;2022-10-31T11:51:52;18.70;99.90
19928;DHT22;10126;50.876;4.470;2022-10-31T11:53:55;18.70;99.90
19928;DHT22;10126;50.876;4.470;2022-10-31T11:56:10;18.60;99.90
19928;DHT22;10126;50.876;4.470;2022-10-31T11:58:24;18.60;99.90
19928;DHT22;10126;50.876;4.470;2022-10-31T12:00:32;18.70;99.90
19928;DHT22;10126;50.876;4.470;2022-10-31T12:02:32;18.80;99.90
19928;DHT22;10126;50.876;4.470;2022-10-31T12:04:46;19.00;99.90
19928;DHT22;10126;50.876;4.470;2022-10-31T12:06:50;19.10;99.90
19928;DHT22;10126;50.876;4.470;2022-10-31T12:08:51;19.00;99.90
19928;DHT22;10126;50.876;4.470;2022-10-31T12:15:31;19.10;99.90
19928;DHT22;10126;50.876;4.470;2022-10-31T12:17:53;19.20;99.90
19928;DHT22;10126;50.876;4.470;2022-10-31T12:27:22;19.60;99.90
19928;DHT22;10126;50.876;4.470;2022-10-31T12:29:42;19.40;99.90
19928;DHT22;10126;50.876;4.470;2022-10-31T12:38:32;19.10;99.90
19928;DHT22;10126;50.876;4.470;2022-10-31T12:45:36;19.10;99.90
19928;DHT22;10126;50.876;4.470;2022-10-31T12:49:54;19.10;99.90
19928;DHT22;10126;50.876;4.470;2022-10-31T12:54:54;19.10;99.90
19928;DHT22;10126;50.876;4.470;2022-10-31T13:01:20;19.40;99.90
19928;DHT22;10126;50.876;4.470;2022-10-31T13:03:38;19.30;99.90
19928;DHT22;10126;50.876;4.470;2022-10-31T13:05:46;19.50;99.90
19928;DHT22;10126;50.876;4.470;2022-10-31T13:07:58;19.70;99.90
19928;DHT22;10126;50.876;4.470;2022-10-31T13:12:16;20.10;99.90
19928;DHT22;10126;50.876;4.470;2022-10-31T13:14:36;20.20;99.90
19928;DHT22;10126;50.876;4.470;2022-10-31T13:16:44;20.40;99.90
19928;DHT22;10126;50.876;4.470;2022-10-31T13:19:00;20.50;99.90
19928;DHT22;10126;50.876;4.470;2022-10-31T13:21:07;20.50;99.90
19928;DHT22;10126;50.876;4.470;2022-10-31T13:23:19;20.50;99.90
19928;DHT22;10126;50.876;4.470;2022-10-31T13:25:28;20.50;99.90
19928;DHT22;10126;50.876;4.470;2022-10-31T13:27:56;20.60;99.90
19928;DHT22;10126;50.876;4.470;2022-10-31T13:30:21;20.70;99.90
19928;DHT22;10126;50.876;4.470;2022-10-31T13:32:22;20.60;99.90
19928;DHT22;10126;50.876;4.470;2022-10-31T13:34:28;20.70;99.90
19928;DHT22;10126;50.876;4.470;2022-10-31T13:36:45;20.50;99.90
19928;DHT22;10126;50.876;4.470;2022-10-31T13:38:51;20.00;99.90
19928;DHT22;10126;50.876;4.470;2022-10-31T13:41:09;19.90;99.90
19928;DHT22;10126;50.876;4.470;2022-10-31T13:45:22;19.70;99.90
19928;DHT22;10126;50.876;4.470;2022-10-31T13:47:25;19.70;99.90
19928;DHT22;10126;50.876;4.470;2022-10-31T13:51:32;19.60;99.90
19928;DHT22;10126;50.876;4.470;2022-10-31T13:56:14;19.80;99.90
19928;DHT22;10126;50.876;4.470;2022-10-31T13:58:29;19.80;99.90
19928;DHT22;10126;50.876;4.470;2022-10-31T14:00:30;19.80;99.90
19928;DHT22;10126;50.876;4.470;2022-10-31T14:02:36;19.80;99.90
19928;DHT22;10126;50.876;4.470;2022-10-31T14:04:43;19.70;99.90
19928;DHT22;10126;50.876;4.470;2022-10-31T14:09:28;19.70;99.90
19928;DHT22;10126;50.876;4.470;2022-10-31T14:11:29;19.70;99.90
19928;DHT22;10126;50.876;4.470;2022-10-31T14:15:33;19.90;99.90
19928;DHT22;10126;50.876;4.470;2022-10-31T14:17:50;19.80;99.90
19928;DHT22;10126;50.876;4.470;2022-10-31T14:20:21;19.80;99.90
19928;DHT22;10126;50.876;4.470;2022-10-31T14:22:23;19.90;99.90
19928;DHT22;10126;50.876;4.470;2022-10-31T14:28:34;19.80;99.90
19928;DHT22;10126;50.876;4.470;2022-10-31T14:30:36;19.80;99.90
19928;DHT22;10126;50.876;4.470;2022-10-31T14:32:36;19.80;99.90
19928;DHT22;10126;50.876;4.470;2022-10-31T14:34:57;19.70;99.90
19928;DHT22;10126;50.876;4.470;2022-10-31T14:39:30;19.70;99.90
19928;DHT22;10126;50.876;4.470;2022-10-31T14:41:47;19.80;99.90
19928;DHT22;10126;50.876;4.470;2022-10-31T14:44:29;19.80;99.90
19928;DHT22;10126;50.876;4.470;2022-10-31T14:51:02;19.60;99.90
19928;DHT22;10126;50.876;4.470;2022-10-31T14:53:18;19.50;99.90
19928;DHT22;10126;50.876;4.470;2022-10-31T14:55:20;19.30;99.90
19928;DHT22;10126;50.876;4.470;2022-10-31T14:57:31;19.10;99.90
19928;DHT22;10126;50.876;4.470;2022-10-31T14:59:36;19.20;99.90
19928;DHT22;10126;50.876;4.470;2022-10-31T15:01:38;19.10;99.90
19928;DHT22;10126;50.876;4.470;2022-10-31T15:03:43;19.10;99.90
19928;DHT22;10126;50.876;4.470;2022-10-31T15:05:50;19.00;99.90
19928;DHT22;10126;50.876;4.470;2022-10-31T15:07:56;19.00;99.90